Time;durP1;ratioP1;P1;durP2;ratioP2;P2;SDS_P1;SDS_P2;PMS_P1;PMS_P2;Temp;Humidity;BMP_temperature;BMP_pressure;BME280_temperature;BME280_humidity;BME280_pressure;Samples;Min_cycle;Max_cycle;Signal;HPM_P1;HPM_P2
2022/05/03 00:02:46;;;;;;;10.57;9.57;;;16.20;58.40;;;;;;4911213;29;20493;-82
2022/05/03 00:05:36;;;;;;;11.00;10.00;;;16.20;58.60;;;;;;4917036;29;20981;-85
2022/05/03 00:08:29;;;;;;;11.10;10.00;;;16.40;58.60;;;;;;4915256;29;20455;-85
2022/05/03 00:11:22;;;;;;;11.10;10.10;;;16.20;58.40;;;;;;4916264;29;20466;-84
2022/05/03 00:14:13;;;;;;;12.17;9.60;;;16.30;58.60;;;;;;4911988;29;21282;-84
2022/05/03 00:16:41;;;;;;;10.80;9.70;;;16.10;58.70;;;;;;4915509;29;20468;-86
2022/05/03 00:19:10;;;;;;;10.37;9.43;;;16.00;59.10;;;;;;4913907;29;20468;-84
2022/05/03 00:21:38;;;;;;;10.20;9.20;;;15.90;59.30;;;;;;4916948;29;20504;-85
2022/05/03 00:24:06;;;;;;;11.50;10.30;;;15.80;59.50;;;;;;4914475;29;20578;-86
2022/05/03 00:26:34;;;;;;;11.47;10.37;;;15.90;59.80;;;;;;4913912;28;20478;-85
2022/05/03 00:29:01;;;;;;;11.80;10.07;;;16.00;59.60;;;;;;4914768;29;20465;-86
2022/05/03 00:31:28;;;;;;;12.03;10.27;;;15.90;59.70;;;;;;4917454;29;20486;-86
2022/05/03 00:33:56;;;;;;;10.70;9.70;;;15.90;59.80;;;;;;4912712;29;20463;-86
2022/05/03 00:36:24;;;;;;;10.60;9.50;;;15.90;59.80;;;;;;4917904;29;20465;-86
2022/05/03 00:38:51;;;;;;;12.07;10.87;;;15.90;60.00;;;;;;4915343;29;21565;-87
2022/05/03 00:41:36;;;;;;;10.40;9.20;;;15.90;60.00;;;;;;4911865;29;20494;-83
2022/05/03 00:47:28;;;;;;;11.57;10.17;;;15.70;60.70;;;;;;4915756;29;20528;-83
2022/05/03 00:50:08;;;;;;;12.53;11.33;;;15.70;61.10;;;;;;4909328;29;20460;-86
2022/05/03 00:52:49;;;;;;;13.33;11.07;;;15.70;61.20;;;;;;4908421;29;20500;-87
2022/05/03 00:55:27;;;;;;;11.13;10.23;;;15.80;61.40;;;;;;4914018;29;20462;-85
2022/05/03 00:58:19;;;;;;;10.97;9.93;;;16.00;60.80;;;;;;4920002;29;20469;-83
2022/05/03 01:01:03;;;;;;;11.30;10.27;;;15.90;60.70;;;;;;4927596;29;20463;-82
2022/05/03 01:03:47;;;;;;;11.00;10.10;;;15.80;61.20;;;;;;4909151;29;20522;-83
2022/05/03 01:06:39;;;;;;;17.03;10.70;;;15.70;61.60;;;;;;4911654;29;20451;-84
2022/05/03 01:09:09;;;;;;;12.20;10.40;;;15.70;61.90;;;;;;4912575;29;20459;-86
2022/05/03 01:12:02;;;;;;;13.60;10.77;;;15.70;62.20;;;;;;4926871;29;20569;-84
2022/05/03 01:14:50;;;;;;;10.97;9.90;;;15.60;62.40;;;;;;4921667;29;20499;-84
2022/05/03 01:17:20;;;;;;;12.63;11.33;;;15.70;62.60;;;;;;4916204;29;20465;-85
2022/05/03 01:20:03;;;;;;;12.80;11.20;;;15.70;62.90;;;;;;4919357;29;20504;-85
2022/05/03 01:22:49;;;;;;;10.97;10.07;;;15.50;63.20;;;;;;4916426;29;20573;-83
2022/05/03 01:25:18;;;;;;;11.43;10.33;;;15.40;63.70;;;;;;4918638;29;20457;-84
2022/05/03 01:27:49;;;;;;;11.10;10.10;;;15.40;64.10;;;;;;4936301;29;20836;-85
2022/05/03 01:30:18;;;;;;;11.63;10.47;;;15.40;64.10;;;;;;4923148;29;20552;-85
2022/05/03 01:32:54;;;;;;;10.93;9.83;;;15.40;64.50;;;;;;4918335;29;20486;-85
2022/05/03 01:35:23;;;;;;;12.17;11.03;;;15.40;64.60;;;;;;4913542;29;20494;-85
2022/05/03 01:38:17;;;;;;;10.50;9.60;;;15.40;64.70;;;;;;4915044;29;20470;-84
2022/05/03 01:40:53;;;;;;;10.83;9.73;;;15.40;64.70;;;;;;4916492;29;20466;-86
2022/05/03 01:43:39;;;;;;;10.93;9.93;;;15.40;64.70;;;;;;4915294;29;20485;-88
2022/05/03 01:46:21;;;;;;;11.67;10.53;;;15.50;64.90;;;;;;4921808;29;20468;-84
2022/05/03 01:52:17;;;;;;;11.00;10.00;;;15.40;65.20;;;;;;4914335;29;22089;-83
2022/05/03 01:55:35;;;;;;;11.33;10.13;;;15.40;65.50;;;;;;4915847;29;20476;-84
2022/05/03 01:58:20;;;;;;;12.43;11.13;;;15.30;65.80;;;;;;4896311;29;20988;-82
2022/05/03 02:01:04;;;;;;;11.30;10.27;;;15.30;66.10;;;;;;4917147;29;20467;-86
2022/05/03 02:03:48;;;;;;;11.90;9.10;;;15.20;66.60;;;;;;4920312;29;20467;-85
2022/05/03 02:06:18;;;;;;;10.37;9.33;;;15.10;67.20;;;;;;4930156;29;20467;-85
2022/05/03 02:09:05;;;;;;;11.67;10.20;;;15.00;68.30;;;;;;4913202;29;20549;-85
2022/05/03 02:11:47;;;;;;;14.10;10.47;;;15.00;68.10;;;;;;4927261;29;20482;-85
2022/05/03 02:14:44;;;;;;;13.53;11.53;;;14.90;68.60;;;;;;4929332;29;20474;-84
2022/05/03 02:17:30;;;;;;;12.23;10.10;;;14.80;68.90;;;;;;4891215;29;20968;-87
2022/05/03 02:20:05;;;;;;;12.90;11.10;;;14.80;69.50;;;;;;4911544;29;20529;-85
2022/05/03 02:22:51;;;;;;;11.10;10.10;;;14.70;69.80;;;;;;4916141;29;20497;-88
2022/05/03 02:25:41;;;;;;;14.23;11.00;;;14.70;70.30;;;;;;4927941;28;20473;-87
2022/05/03 02:28:22;;;;;;;13.03;11.00;;;14.70;70.40;;;;;;4925560;29;20465;-87
2022/05/03 02:30:51;;;;;;;11.13;9.70;;;14.70;70.60;;;;;;4922734;29;20462;-85
2022/05/03 02:33:25;;;;;;;10.00;9.00;;;14.70;70.70;;;;;;4911977;29;20589;-84
2022/05/03 02:35:56;;;;;;;10.63;9.63;;;14.80;70.90;;;;;;4914279;29;20991;-85
2022/05/03 02:38:53;;;;;;;11.30;10.20;;;14.80;71.00;;;;;;4914984;29;20465;-86
2022/05/03 02:41:21;;;;;;;11.83;10.53;;;14.70;71.20;;;;;;4915820;29;20484;-83
2022/05/03 02:43:49;;;;;;;11.00;10.00;;;14.60;71.70;;;;;;4930926;29;20486;-84
2022/05/03 02:46:38;;;;;;;11.13;10.03;;;14.60;72.10;;;;;;4917992;29;20972;-85
2022/05/03 02:49:14;;;;;;;11.53;9.77;;;14.60;72.40;;;;;;4921491;29;20467;-84
2022/05/03 02:52:06;;;;;;;11.50;9.90;;;14.60;72.90;;;;;;4936007;29;20490;-85
2022/05/03 02:55:08;;;;;;;10.70;9.63;;;14.60;72.80;;;;;;4922823;29;20482;-83
2022/05/03 02:57:47;;;;;;;13.60;10.53;;;14.60;73.00;;;;;;4918068;29;20464;-84
2022/05/03 03:03:24;;;;;;;10.67;9.67;;;14.70;73.70;;;;;;4909835;29;20506;-86
2022/05/03 03:06:01;;;;;;;12.27;10.83;;;14.70;73.00;;;;;;4928290;29;20462;-88
2022/05/03 03:08:39;;;;;;;11.63;10.30;;;14.50;73.50;;;;;;4924538;29;20488;-86
2022/05/03 03:11:09;;;;;;;12.23;9.60;;;14.30;74.20;;;;;;4909305;29;20470;-85
2022/05/03 03:14:14;;;;;;;11.67;10.57;;;14.20;75.00;;;;;;4917711;29;20453;-88
2022/05/03 03:16:44;;;;;;;10.77;9.67;;;14.10;75.90;;;;;;4941238;28;20463;-87
2022/05/03 03:19:20;;;;;;;11.23;8.83;;;14.00;76.60;;;;;;4928005;29;20459;-87
2022/05/03 03:21:50;;;;;;;15.30;10.80;;;14.00;77.20;;;;;;4925529;28;20504;-84
2022/05/03 03:24:19;;;;;;;10.33;9.30;;;13.90;77.70;;;;;;4941782;28;20467;-85
2022/05/03 03:26:47;;;;;;;9.93;8.93;;;14.00;78.40;;;;;;4922738;29;20537;-85
2022/05/03 03:29:14;;;;;;;11.30;10.20;;;14.00;78.30;;;;;;4921028;28;21001;-85
2022/05/03 03:31:43;;;;;;;12.33;10.60;;;14.00;78.50;;;;;;4915102;29;20486;-84
2022/05/03 03:34:11;;;;;;;9.90;8.90;;;14.10;78.30;;;;;;4915631;29;20478;-83
2022/05/03 03:36:41;;;;;;;11.80;10.50;;;14.10;78.30;;;;;;4911532;29;20466;-85
2022/05/03 03:39:08;;;;;;;12.93;9.63;;;14.00;78.20;;;;;;4910957;29;20470;-85
2022/05/03 03:41:36;;;;;;;11.20;10.20;;;14.00;78.30;;;;;;4914086;29;20491;-83
2022/05/03 03:44:05;;;;;;;10.60;9.60;;;13.90;78.90;;;;;;4911172;29;20463;-86
2022/05/03 03:46:32;;;;;;;10.77;9.67;;;13.90;79.20;;;;;;4928095;29;20461;-86
2022/05/03 03:49:00;;;;;;;14.23;9.97;;;13.90;79.50;;;;;;4928644;28;20453;-86
2022/05/03 03:51:26;;;;;;;12.33;9.27;;;13.80;79.40;;;;;;4923638;29;20475;-82
2022/05/03 03:53:53;;;;;;;13.60;10.20;;;13.70;79.90;;;;;;4913709;29;20467;-86
2022/05/03 03:56:20;;;;;;;11.13;10.00;;;13.80;80.30;;;;;;4914048;29;20473;-86
2022/05/03 03:58:47;;;;;;;11.93;10.10;;;13.80;80.60;;;;;;4911102;29;20470;-85
2022/05/03 04:01:14;;;;;;;11.40;9.03;;;13.80;80.60;;;;;;4911102;29;21752;-85
2022/05/03 04:03:41;;;;;;;13.83;9.73;;;13.70;80.50;;;;;;4914843;28;20495;-84
2022/05/03 04:06:08;;;;;;;10.90;9.80;;;13.70;80.80;;;;;;4913457;29;20479;-85
2022/05/03 04:08:35;;;;;;;9.97;9.07;;;13.70;80.90;;;;;;4910222;29;20467;-84
2022/05/03 04:11:15;;;;;;;11.17;10.00;;;13.60;80.90;;;;;;4907865;29;20465;-86
2022/05/03 04:13:44;;;;;;;13.40;10.43;;;13.70;81.30;;;;;;4908852;29;20505;-86
2022/05/03 04:16:13;;;;;;;10.43;9.43;;;13.70;81.10;;;;;;4922838;29;20451;-82
2022/05/03 04:18:44;;;;;;;10.30;9.30;;;13.80;81.00;;;;;;4910323;29;20468;-85
2022/05/03 04:21:18;;;;;;;10.47;9.47;;;13.70;80.90;;;;;;4912546;29;20459;-84
2022/05/03 04:23:45;;;;;;;12.27;10.13;;;13.50;81.30;;;;;;4911286;29;20484;-84
2022/05/03 04:26:12;;;;;;;10.03;9.03;;;13.40;81.80;;;;;;4909643;29;20480;-84
2022/05/03 04:28:39;;;;;;;10.20;9.20;;;13.30;82.80;;;;;;4910593;29;20503;-84
2022/05/03 04:31:07;;;;;;;10.27;9.27;;;13.10;83.70;;;;;;4913904;29;21023;-84
2022/05/03 04:33:34;;;;;;;10.33;8.73;;;12.90;84.40;;;;;;4908356;29;20461;-84
2022/05/03 04:36:01;;;;;;;9.70;8.80;;;13.00;84.80;;;;;;4909889;29;20489;-84
2022/05/03 04:38:28;;;;;;;9.73;8.57;;;13.00;85.00;;;;;;4912935;29;20469;-83
2022/05/03 04:41:00;;;;;;;10.23;9.23;;;13.10;84.80;;;;;;4935504;29;20496;-84
2022/05/03 04:43:27;;;;;;;11.07;9.83;;;13.10;84.80;;;;;;4912465;29;20498;-85
2022/05/03 04:45:54;;;;;;;9.97;8.80;;;13.20;84.70;;;;;;4910531;29;20518;-83
2022/05/03 04:48:21;;;;;;;8.57;7.50;;;13.30;84.30;;;;;;4912655;29;20462;-83
2022/05/03 04:50:48;;;;;;;14.47;9.07;;;13.40;84.00;;;;;;4912298;29;20485;-86
2022/05/03 04:53:16;;;;;;;9.63;8.73;;;13.40;83.50;;;;;;4908929;29;20481;-87
2022/05/03 04:55:43;;;;;;;9.10;8.20;;;13.40;83.10;;;;;;4910168;29;20466;-88
2022/05/03 04:58:10;;;;;;;8.73;7.90;;;13.50;82.80;;;;;;4914152;29;20467;-85
2022/05/03 05:00:37;;;;;;;8.90;8.07;;;13.50;82.20;;;;;;4913847;29;20467;-86
2022/05/03 05:03:05;;;;;;;12.20;8.20;;;13.40;82.00;;;;;;4910934;29;20490;-85
2022/05/03 05:05:32;;;;;;;9.53;8.63;;;13.40;82.00;;;;;;4913555;29;20458;-85
2022/05/03 05:08:03;;;;;;;8.90;8.07;;;13.40;82.10;;;;;;4920937;29;20467;-85
2022/05/03 05:10:32;;;;;;;9.93;8.00;;;13.50;81.80;;;;;;4916384;29;20466;-86
2022/05/03 05:13:00;;;;;;;12.03;9.37;;;13.40;81.50;;;;;;4913128;29;20486;-84
2022/05/03 05:15:29;;;;;;;9.20;7.67;;;13.50;81.40;;;;;;4914345;29;20491;-82
2022/05/03 05:17:58;;;;;;;9.73;8.30;;;13.60;81.40;;;;;;4913219;29;20470;-86
2022/05/03 05:20:25;;;;;;;8.93;7.80;;;13.60;81.00;;;;;;4924783;29;20547;-83
2022/05/03 05:22:52;;;;;;;9.90;8.87;;;13.60;80.60;;;;;;4912008;29;20498;-85
2022/05/03 05:25:39;;;;;;;11.53;7.57;;;13.70;80.30;;;;;;4921801;29;20456;-84
2022/05/03 05:28:06;;;;;;;12.90;8.20;;;13.60;80.10;;;;;;4907616;29;20526;-85
2022/05/03 05:30:33;;;;;;;8.03;7.23;;;13.70;80.30;;;;;;4909666;29;20463;-83
2022/05/03 05:32:59;;;;;;;8.27;7.03;;;13.60;80.10;;;;;;4910856;29;20491;-86
2022/05/03 05:35:26;;;;;;;10.23;7.77;;;13.60;79.90;;;;;;4915303;29;20471;-86
2022/05/03 05:37:53;;;;;;;9.03;8.13;;;13.50;80.00;;;;;;4912294;29;20467;-85
2022/05/03 05:40:20;;;;;;;8.27;7.57;;;13.50;80.60;;;;;;4907363;29;20455;-85
2022/05/03 05:42:49;;;;;;;9.17;7.80;;;13.60;80.90;;;;;;4909167;29;20495;-85
2022/05/03 05:45:17;;;;;;;8.20;7.40;;;13.70;80.30;;;;;;4908974;29;20492;-87
2022/05/03 05:47:44;;;;;;;8.77;7.97;;;13.70;79.60;;;;;;4910905;29;20462;-85
2022/05/03 05:50:11;;;;;;;9.87;8.40;;;13.60;79.60;;;;;;4928563;29;20458;-85
2022/05/03 05:55:24;;;;;;;7.87;6.80;;;13.80;79.70;;;;;;4913099;29;20470;-85
2022/05/03 05:57:53;;;;;;;9.80;8.23;;;13.90;79.50;;;;;;4917565;29;20471;-85
2022/05/03 06:00:20;;;;;;;13.40;8.63;;;13.90;79.00;;;;;;4925781;29;20538;-86
2022/05/03 06:02:47;;;;;;;8.47;7.60;;;14.00;78.70;;;;;;4931691;29;20550;-88
2022/05/03 06:05:14;;;;;;;10.53;8.00;;;14.10;78.40;;;;;;4924123;29;20469;-84
2022/05/03 06:07:40;;;;;;;8.97;8.07;;;14.20;78.00;;;;;;4921938;29;20473;-85
2022/05/03 06:10:08;;;;;;;9.90;8.00;;;14.20;77.30;;;;;;4915483;29;20471;-84
2022/05/03 06:12:35;;;;;;;12.33;7.77;;;14.20;77.10;;;;;;4916781;29;20731;-87
2022/05/03 06:15:02;;;;;;;10.20;8.47;;;14.20;76.60;;;;;;4917570;29;20469;-86
2022/05/03 06:17:29;;;;;;;9.23;8.30;;;14.40;76.30;;;;;;4917211;29;20466;-84
2022/05/03 06:19:56;;;;;;;13.33;8.07;;;14.90;75.30;;;;;;4916460;29;20477;-85
2022/05/03 06:22:23;;;;;;;8.40;7.60;;;15.00;73.80;;;;;;4916524;29;20475;-85
2022/05/03 06:24:51;;;;;;;13.73;7.97;;;16.20;73.40;;;;;;4921837;29;20462;-83
2022/05/03 06:27:17;;;;;;;10.90;8.17;;;18.20;66.70;;;;;;4921195;29;20450;-84
2022/05/03 06:29:44;;;;;;;13.47;8.50;;;18.80;60.00;;;;;;4919599;29;21233;-85
2022/05/03 06:32:11;;;;;;;8.70;7.90;;;17.90;59.40;;;;;;4922708;29;20844;-85
2022/05/03 06:34:38;;;;;;;9.50;8.50;;;17.20;61.10;;;;;;4917647;29;20845;-83
2022/05/03 06:37:06;;;;;;;11.23;8.80;;;16.70;63.10;;;;;;4918643;29;21045;-86
2022/05/03 06:39:36;;;;;;;10.97;8.47;;;16.30;64.40;;;;;;4919655;29;20444;-85
2022/05/03 06:42:05;;;;;;;9.97;8.97;;;16.00;65.50;;;;;;4918709;29;20920;-85
2022/05/03 06:44:33;;;;;;;8.87;7.80;;;15.90;66.40;;;;;;4914701;29;20598;-85
2022/05/03 06:47:00;;;;;;;9.20;8.30;;;15.80;66.80;;;;;;4917710;29;20462;-85
2022/05/03 06:49:26;;;;;;;9.30;7.73;;;15.70;67.20;;;;;;4916231;29;20475;-84
2022/05/03 06:51:53;;;;;;;12.10;8.60;;;15.80;67.50;;;;;;4915566;29;20480;-85
2022/05/03 06:54:20;;;;;;;9.60;7.67;;;15.80;67.20;;;;;;4926732;29;20463;-84
2022/05/03 06:56:47;;;;;;;8.93;7.77;;;15.80;66.70;;;;;;4927197;28;20458;-87
2022/05/03 06:59:13;;;;;;;12.07;8.77;;;16.00;66.80;;;;;;4930517;29;20457;-85
2022/05/03 07:01:40;;;;;;;9.00;8.17;;;16.70;65.10;;;;;;4929286;29;20480;-88
2022/05/03 07:04:11;;;;;;;12.33;8.80;;;16.60;63.80;;;;;;4930640;28;20490;-87
2022/05/03 07:06:37;;;;;;;9.90;7.60;;;16.60;64.40;;;;;;4927614;29;20464;-88
2022/05/03 07:09:04;;;;;;;8.43;7.63;;;16.30;64.50;;;;;;4925733;29;20467;-87
2022/05/03 07:11:31;;;;;;;9.30;8.03;;;16.30;64.80;;;;;;4916195;29;20481;-85
2022/05/03 07:13:58;;;;;;;8.90;7.80;;;16.50;64.10;;;;;;4918196;29;20530;-83
2022/05/03 07:16:25;;;;;;;8.17;7.37;;;16.10;64.90;;;;;;4913413;29;20552;-85
2022/05/03 07:24:36;;;;;;;8.80;6.70;;;16.30;64.70;;;;;;4870429;29;20501;-88
2022/05/03 07:27:03;;;;;;;8.60;7.77;;;16.80;63.90;;;;;;4920360;29;20450;-85
2022/05/03 07:29:30;;;;;;;8.10;7.27;;;17.40;61.90;;;;;;4922500;29;20507;-86
2022/05/03 07:31:56;;;;;;;9.00;7.57;;;18.30;59.50;;;;;;4924397;29;20487;-87
2022/05/03 07:34:23;;;;;;;7.83;7.03;;;19.60;56.60;;;;;;4921284;29;20450;-87
2022/05/03 07:36:50;;;;;;;8.03;7.23;;;20.40;53.90;;;;;;4919259;29;20561;-86
2022/05/03 07:39:17;;;;;;;11.77;8.00;;;21.40;52.50;;;;;;4922844;29;20462;-88
2022/05/03 07:41:43;;;;;;;7.03;6.43;;;22.80;50.50;;;;;;4925272;29;20475;-88
2022/05/03 07:44:10;;;;;;;8.20;7.33;;;23.70;48.00;;;;;;4922583;29;20486;-88
2022/05/03 07:46:37;;;;;;;8.50;7.67;;;24.00;46.50;;;;;;4922717;29;20522;-88
2022/05/03 07:49:04;;;;;;;9.73;7.30;;;24.40;45.60;;;;;;4923798;29;20450;-87
2022/05/03 07:51:31;;;;;;;7.53;6.93;;;25.40;44.50;;;;;;4921507;29;20545;-86
2022/05/03 07:53:58;;;;;;;8.50;7.70;;;26.10;42.40;;;;;;4921467;29;20467;-88
2022/05/03 07:56:25;;;;;;;8.30;6.97;;;26.00;42.10;;;;;;4921631;29;20451;-87
2022/05/03 07:58:52;;;;;;;7.83;7.13;;;26.30;41.40;;;;;;4922392;29;20464;-86
2022/05/03 08:01:18;;;;;;;9.07;8.27;;;26.50;40.70;;;;;;4921403;29;20505;-89
2022/05/03 08:03:47;;;;;;;7.93;7.17;;;26.30;40.30;;;;;;4919661;29;20478;-88
2022/05/03 08:06:17;;;;;;;7.47;6.80;;;26.40;40.60;;;;;;4922743;29;20483;-88
2022/05/03 08:08:44;;;;;;;10.20;7.37;;;26.00;40.50;;;;;;4922437;29;20462;-88
2022/05/03 08:11:11;;;;;;;7.97;7.27;;;26.00;40.50;;;;;;4920117;29;20494;-85
2022/05/03 08:13:37;;;;;;;8.40;6.93;;;25.90;40.50;;;;;;4920097;29;20468;-88
2022/05/03 08:16:19;;;;;;;7.30;6.60;;;26.10;40.20;;;;;;4919592;29;21049;-86
2022/05/03 08:18:48;;;;;;;7.90;7.00;;;27.10;39.40;;;;;;4917264;29;20466;-85
2022/05/03 08:21:18;;;;;;;8.60;5.90;;;27.90;37.70;;;;;;4932252;29;20479;-87
2022/05/03 08:23:51;;;;;;;6.73;6.07;;;27.90;37.30;;;;;;4930798;29;20573;-85
2022/05/03 08:26:20;;;;;;;8.57;7.60;;;26.90;37.70;;;;;;4910733;29;20458;-89
2022/05/03 08:28:54;;;;;;;6.80;6.23;;;27.50;38.10;;;;;;4911525;29;20980;-86
2022/05/03 08:31:23;;;;;;;7.93;5.67;;;27.40;37.50;;;;;;4918080;29;21243;-86
2022/05/03 08:33:52;;;;;;;7.40;6.70;;;27.30;37.60;;;;;;4914769;29;20802;-87
2022/05/03 08:36:20;;;;;;;7.30;6.40;;;27.60;36.80;;;;;;4909021;29;20561;-84
2022/05/03 08:44:20;;;;;;;8.70;7.80;;;28.10;36.10;;;;;;4912132;29;20478;-86
2022/05/03 08:46:49;;;;;;;8.17;6.13;;;27.70;35.80;;;;;;4892005;29;1095581;-85
2022/05/03 08:49:17;;;;;;;6.87;6.10;;;26.90;36.70;;;;;;4910669;29;20209;-85
2022/05/03 08:51:44;;;;;;;6.90;6.20;;;27.70;36.30;;;;;;4912020;29;20482;-86
2022/05/03 08:54:11;;;;;;;6.60;6.00;;;27.30;36.30;;;;;;4912599;29;20474;-87
2022/05/03 08:56:40;;;;;;;7.13;6.50;;;26.50;37.30;;;;;;4913441;29;20475;-84
2022/05/03 08:59:08;;;;;;;7.07;6.27;;;26.40;37.40;;;;;;4914111;29;20464;-83
2022/05/03 09:01:36;;;;;;;7.10;6.50;;;26.10;37.80;;;;;;4919611;29;20477;-88
2022/05/03 09:04:03;;;;;;;11.47;10.53;;;26.90;36.90;;;;;;4925774;29;20492;-86
2022/05/03 09:06:47;;;;;;;11.20;10.10;;;26.60;36.70;;;;;;4919828;29;20875;-87
2022/05/03 09:09:18;;;;;;;7.20;6.50;;;26.70;37.30;;;;;;4930162;29;20458;-84
2022/05/03 09:11:48;;;;;;;7.13;6.53;;;27.10;36.50;;;;;;4927189;29;20495;-85
2022/05/03 09:14:38;;;;;;;7.50;5.83;;;27.00;36.20;;;;;;4913650;29;20481;-84
2022/05/03 09:17:07;;;;;;;10.17;5.57;;;27.10;36.20;;;;;;4912253;29;20494;-86
2022/05/03 09:19:34;;;;;;;6.00;5.40;;;26.90;36.10;;;;;;4917108;29;20443;-88
2022/05/03 09:25:02;;;;;;;6.93;6.23;;;27.50;35.40;;;;;;4916105;29;21044;-86
2022/05/03 09:27:31;;;;;;;7.00;6.43;;;27.50;35.50;;;;;;4916393;29;20444;-86
2022/05/03 09:30:07;;;;;;;6.83;6.13;;;27.50;35.30;;;;;;4916980;29;20461;-87
2022/05/03 09:32:43;;;;;;;6.57;5.97;;;28.40;34.90;;;;;;4917639;29;20478;-85
2022/05/03 09:35:30;;;;;;;8.50;6.27;;;29.40;33.50;;;;;;4924767;29;20465;-87
2022/05/03 09:37:57;;;;;;;6.30;5.80;;;28.60;33.40;;;;;;4925492;29;20474;-88
2022/05/03 09:40:25;;;;;;;6.73;5.90;;;27.50;34.00;;;;;;4927146;29;20528;-87
2022/05/03 09:42:54;;;;;;;7.87;6.00;;;26.40;35.40;;;;;;4940897;29;20482;-87
2022/05/03 09:45:25;;;;;;;7.67;5.80;;;26.40;35.80;;;;;;4937270;29;20493;-86
2022/05/03 09:47:54;;;;;;;6.40;5.80;;;26.10;35.50;;;;;;4935446;29;20807;-88
2022/05/03 09:50:30;;;;;;;6.20;5.60;;;25.90;36.00;;;;;;4939236;29;20493;-90
2022/05/03 09:52:58;;;;;;;6.07;5.43;;;26.00;35.80;;;;;;4938745;29;20470;-83
2022/05/03 09:55:32;;;;;;;8.37;5.20;;;25.90;35.80;;;;;;4920155;29;20491;-84
2022/05/03 09:58:04;;;;;;;7.20;5.40;;;25.90;35.90;;;;;;4912245;29;20446;-85
2022/05/03 10:00:33;;;;;;;5.30;4.90;;;26.00;36.00;;;;;;4909721;29;20578;-84
2022/05/03 10:03:01;;;;;;;8.00;5.50;;;26.00;35.80;;;;;;4916690;29;20574;-85
2022/05/03 10:05:29;;;;;;;6.20;5.70;;;26.90;35.10;;;;;;4924788;29;20502;-86
2022/05/03 10:07:58;;;;;;;5.93;5.43;;;26.50;34.70;;;;;;4926857;29;20472;-85
2022/05/03 10:10:26;;;;;;;8.00;7.10;;;26.10;35.20;;;;;;4915318;29;20466;-85
2022/05/03 10:12:56;;;;;;;50.57;14.80;;;26.30;35.30;;;;;;4928560;29;20483;-84
2022/05/03 10:21:28;;;;;;;5.63;5.17;;;26.90;34.50;;;;;;4938304;29;20478;-85
2022/05/03 10:24:11;;;;;;;7.50;6.30;;;26.80;34.40;;;;;;4936395;29;20637;-86
2022/05/03 10:27:05;;;;;;;6.40;5.90;;;26.50;34.30;;;;;;4936034;29;20462;-83
2022/05/03 10:29:36;;;;;;;6.20;5.50;;;26.00;34.70;;;;;;4913214;29;20440;-85
2022/05/03 10:32:15;;;;;;;6.40;5.80;;;26.10;35.00;;;;;;4920728;29;20467;-84
2022/05/03 10:34:55;;;;;;;6.67;6.07;;;27.90;33.90;;;;;;4932297;29;20446;-85
2022/05/03 10:37:33;;;;;;;6.17;5.57;;;27.30;33.20;;;;;;4947147;29;20458;-87
2022/05/03 10:40:06;;;;;;;7.57;6.87;;;26.60;34.40;;;;;;4939913;29;20447;-87
2022/05/03 10:42:33;;;;;;;7.37;6.83;;;26.50;34.50;;;;;;4930035;29;20474;-84
2022/05/03 10:45:11;;;;;;;6.97;6.37;;;28.10;32.70;;;;;;4938814;29;20522;-85
2022/05/03 10:47:57;;;;;;;7.27;6.60;;;27.10;33.20;;;;;;4933092;29;20528;-84
2022/05/03 10:50:30;;;;;;;8.37;6.23;;;28.30;32.40;;;;;;4944423;29;20460;-86
2022/05/03 10:52:59;;;;;;;7.87;7.17;;;28.40;31.70;;;;;;4930203;29;20489;-84
2022/05/03 10:55:40;;;;;;;7.67;7.07;;;28.70;31.90;;;;;;4924474;29;20862;-87
2022/05/03 10:58:29;;;;;;;7.07;6.37;;;28.00;32.20;;;;;;4925574;29;20503;-85
2022/05/03 11:01:07;;;;;;;10.40;7.00;;;27.00;33.10;;;;;;4933492;29;20526;-84
2022/05/03 11:03:40;;;;;;;8.13;7.53;;;27.70;32.70;;;;;;4921839;29;20515;-84
2022/05/03 11:06:19;;;;;;;8.23;7.30;;;26.80;33.20;;;;;;4917983;29;20546;-86
2022/05/03 11:11:42;;;;;;;9.47;7.87;;;25.90;34.10;;;;;;4934487;29;20525;-83
2022/05/03 11:14:18;;;;;;;7.33;6.67;;;26.00;34.20;;;;;;4927174;29;20517;-83
2022/05/03 11:17:04;;;;;;;8.23;7.53;;;27.50;33.50;;;;;;4923021;29;20462;-85
2022/05/03 11:19:32;;;;;;;7.13;6.63;;;26.90;32.90;;;;;;4921305;29;20507;-85
2022/05/03 11:21:59;;;;;;;8.23;7.43;;;26.30;34.20;;;;;;4951898;29;20538;-83
2022/05/03 11:24:32;;;;;;;7.60;6.80;;;26.20;34.00;;;;;;4949053;29;20879;-84
2022/05/03 11:27:02;;;;;;;7.80;7.07;;;25.80;34.30;;;;;;4924033;29;20526;-87
2022/05/03 11:29:31;;;;;;;8.63;6.87;;;25.60;34.50;;;;;;4934645;29;20459;-83
2022/05/03 11:32:06;;;;;;;8.10;7.43;;;25.70;34.80;;;;;;4923293;29;20462;-86
2022/05/03 11:34:36;;;;;;;7.77;7.07;;;26.90;33.90;;;;;;4927066;29;20442;-87
2022/05/03 11:37:07;;;;;;;7.27;6.47;;;27.70;32.60;;;;;;4922367;29;20452;-87
2022/05/03 11:39:40;;;;;;;6.90;6.10;;;27.40;32.70;;;;;;4920918;29;20488;-83
2022/05/03 11:42:10;;;;;;;8.13;6.50;;;27.20;32.50;;;;;;4932960;29;20478;-85
2022/05/03 11:44:43;;;;;;;8.63;7.60;;;27.90;31.40;;;;;;4941486;29;20462;-87
2022/05/03 11:47:14;;;;;;;6.70;6.10;;;28.20;31.60;;;;;;4937706;29;20553;-86
2022/05/03 11:49:43;;;;;;;7.00;6.50;;;28.00;31.10;;;;;;4932804;29;20462;-85
2022/05/03 11:58:06;;;;;;;8.90;8.20;;;28.20;30.70;;;;;;4933319;29;20468;-85
2022/05/03 12:00:44;;;;;;;8.33;7.53;;;27.40;31.50;;;;;;4925866;29;20567;-84
2022/05/03 12:03:12;;;;;;;7.90;7.27;;;27.20;31.60;;;;;;4921115;29;20984;-86
2022/05/03 12:05:40;;;;;;;7.80;7.13;;;26.50;31.80;;;;;;4931372;29;20481;-83
2022/05/03 12:08:18;;;;;;;8.83;7.90;;;27.10;31.90;;;;;;4925617;29;20470;-86
2022/05/03 12:10:45;;;;;;;8.20;7.50;;;26.90;31.50;;;;;;4933016;29;20459;-85
2022/05/03 12:13:24;;;;;;;9.03;6.30;;;26.00;32.30;;;;;;4927621;29;20547;-86
2022/05/03 12:15:57;;;;;;;7.47;6.87;;;25.70;33.30;;;;;;4934100;29;20439;-87
2022/05/03 12:18:34;;;;;;;8.37;7.57;;;25.80;33.40;;;;;;4933151;29;20458;-87
2022/05/03 12:21:16;;;;;;;7.63;7.00;;;25.90;33.40;;;;;;4932025;29;20463;-86
2022/05/03 12:23:51;;;;;;;7.07;6.57;;;26.00;33.60;;;;;;4945229;29;20454;-88
2022/05/03 12:26:21;;;;;;;9.10;7.80;;;26.20;33.10;;;;;;4929649;29;20503;-82
2022/05/03 12:28:57;;;;;;;8.30;7.47;;;26.60;32.60;;;;;;4930219;29;20432;-86
2022/05/03 12:31:30;;;;;;;9.80;7.37;;;26.10;32.60;;;;;;4936428;29;20455;-86
2022/05/03 12:33:58;;;;;;;7.70;6.93;;;26.50;32.40;;;;;;4919667;29;20486;-85
2022/05/03 12:36:40;;;;;;;8.50;7.80;;;26.40;32.70;;;;;;4926277;29;20439;-86
2022/05/03 12:39:17;;;;;;;7.67;6.83;;;26.20;32.30;;;;;;4925922;29;20462;-85
2022/05/03 12:41:59;;;;;;;6.97;6.37;;;25.90;32.60;;;;;;4926822;29;20493;-86
2022/05/03 12:44:27;;;;;;;7.53;6.83;;;25.70;33.20;;;;;;4926904;29;20478;-84
2022/05/03 12:47:03;;;;;;;8.40;7.30;;;25.50;33.30;;;;;;4932632;29;20460;-85
2022/05/03 12:49:30;;;;;;;9.47;7.30;;;25.70;33.50;;;;;;4920493;29;20454;-86
2022/05/03 12:51:57;;;;;;;7.20;6.60;;;26.20;33.50;;;;;;4925462;29;21267;-85
2022/05/03 12:54:30;;;;;;;7.20;6.60;;;27.20;32.30;;;;;;4923596;29;20532;-87
2022/05/03 12:59:42;;;;;;;7.97;7.17;;;26.70;32.10;;;;;;4908796;29;20465;-83
2022/05/03 13:02:10;;;;;;;9.90;8.37;;;26.40;32.10;;;;;;4914229;29;20473;-84
2022/05/03 13:04:37;;;;;;;12.47;7.70;;;26.20;32.40;;;;;;4934379;29;20570;-84
2022/05/03 13:07:04;;;;;;;8.10;7.30;;;26.90;31.90;;;;;;4932861;29;21050;-83
2022/05/03 13:09:31;;;;;;;7.23;6.53;;;26.90;31.50;;;;;;4925191;29;20463;-83
2022/05/03 13:11:59;;;;;;;7.73;7.13;;;26.70;31.40;;;;;;4927039;29;20478;-84
2022/05/03 13:14:26;;;;;;;8.33;7.60;;;26.40;31.60;;;;;;4926021;29;20473;-85
2022/05/03 13:16:54;;;;;;;7.50;6.90;;;26.40;32.10;;;;;;4930852;29;20481;-84
2022/05/03 13:19:25;;;;;;;7.10;6.50;;;26.00;32.40;;;;;;4923319;29;20455;-85
2022/05/03 13:22:04;;;;;;;7.87;7.17;;;25.70;32.50;;;;;;4926824;29;20493;-83
2022/05/03 13:24:34;;;;;;;7.13;6.43;;;25.40;33.00;;;;;;4929800;29;20581;-85
2022/05/03 13:27:09;;;;;;;7.70;7.10;;;25.30;33.40;;;;;;4931409;29;20450;-84
2022/05/03 13:29:38;;;;;;;8.20;7.40;;;25.40;33.50;;;;;;4933773;29;20875;-85
2022/05/03 13:32:08;;;;;;;6.27;5.80;;;25.70;33.30;;;;;;4952472;29;20548;-86
2022/05/03 13:34:40;;;;;;;7.20;6.57;;;25.70;33.10;;;;;;4931109;29;20487;-85
2022/05/03 13:42:45;;;;;;;6.97;6.43;;;26.30;32.20;;;;;;4921670;29;20480;-85
2022/05/03 13:45:16;;;;;;;7.33;6.73;;;26.70;31.60;;;;;;4932116;29;20486;-85
2022/05/03 13:48:04;;;;;;;11.63;8.37;;;26.30;32.10;;;;;;4927051;29;20462;-84
2022/05/03 13:50:31;;;;;;;7.80;7.20;;;25.70;33.00;;;;;;4924348;29;20470;-84
2022/05/03 13:52:57;;;;;;;6.93;6.10;;;25.50;33.10;;;;;;4927462;29;20554;-84
2022/05/03 13:55:24;;;;;;;7.70;6.80;;;25.50;33.50;;;;;;4927123;29;20447;-85
2022/05/03 13:57:55;;;;;;;8.27;7.47;;;25.60;33.80;;;;;;4925182;29;20472;-84